createdAt,value
2024-05-09T00:01:01.508Z,71.96
2024-05-09T00:03:48.564Z,72.83
2024-05-09T00:06:35.463Z,72.65
2024-05-09T00:09:22.886Z,72.70
2024-05-09T00:12:09.702Z,72.98
2024-05-09T00:14:57.238Z,73.30
2024-05-09T00:17:47.206Z,73.27
2024-05-09T00:20:38.990Z,73.48
2024-05-09T00:23:28.876Z,74.27
2024-05-09T00:26:19.088Z,73.94
2024-05-09T00:29:14.894Z,73.48
2024-05-09T00:32:02.125Z,73.10
2024-05-09T00:34:49.641Z,73.21
2024-05-09T00:37:36.498Z,74.11
2024-05-09T00:40:34.761Z,74.25
2024-05-09T00:43:29.165Z,73.89
2024-05-09T00:46:17.201Z,73.77
2024-05-09T00:49:05.214Z,73.91
2024-05-09T00:51:52.681Z,74.17
2024-05-09T00:54:42.752Z,73.88
2024-05-09T00:57:30.284Z,73.93
2024-05-09T01:00:26.607Z,73.66
2024-05-09T01:03:19.343Z,74.23
2024-05-09T01:06:07.321Z,74.55
2024-05-09T01:08:54.526Z,73.93
2024-05-09T01:11:42.008Z,73.86
2024-05-09T01:14:29.030Z,74.17
2024-05-09T01:17:16.212Z,74.85
2024-05-09T01:20:20.184Z,74.76
2024-05-09T01:23:15.866Z,74.53
2024-05-09T01:26:03.575Z,74.41
2024-05-09T01:28:50.522Z,74.45
2024-05-09T01:31:37.446Z,74.48
2024-05-09T01:34:25.597Z,73.79
2024-05-09T01:37:12.315Z,73.86
2024-05-09T01:39:59.328Z,74.44
2024-05-09T01:42:46.354Z,73.74
2024-05-09T01:45:33.991Z,73.61
2024-05-09T01:48:21.460Z,73.88
2024-05-09T01:51:08.922Z,74.00
2024-05-09T01:53:55.829Z,74.69
2024-05-09T01:56:42.742Z,74.23
2024-05-09T01:59:30.656Z,73.92
2024-05-09T02:02:17.978Z,74.25
2024-05-09T02:05:06.285Z,74.69
2024-05-09T02:07:53.546Z,74.87
2024-05-09T02:10:40.854Z,74.45
2024-05-09T02:13:27.721Z,73.96
2024-05-09T02:16:17.512Z,73.89
2024-05-09T02:19:04.735Z,74.08
2024-05-09T02:21:52.040Z,74.32
2024-05-09T02:24:38.635Z,74.24
2024-05-09T02:27:25.471Z,74.54
2024-05-09T02:30:18.975Z,74.17
2024-05-09T02:33:14.375Z,74.74
2024-05-09T02:36:01.871Z,74.81
2024-05-09T02:38:49.177Z,74.84
2024-05-09T02:41:45.726Z,74.56
2024-05-09T02:44:32.712Z,74.77
2024-05-09T02:47:20.275Z,74.85
2024-05-09T02:50:08.312Z,74.41
2024-05-09T02:52:55.350Z,74.62
2024-05-09T02:55:42.831Z,74.56
2024-05-09T02:58:32.635Z,74.82
2024-05-09T03:01:19.907Z,75.28
2024-05-09T03:04:07.235Z,75.18
2024-05-09T03:06:54.596Z,75.01
2024-05-09T03:09:46.732Z,75.38
2024-05-09T03:12:35.809Z,75.15
2024-05-09T03:15:23.830Z,74.43
2024-05-09T03:18:11.520Z,74.24
2024-05-09T03:20:59.254Z,75.32
2024-05-09T03:23:49.321Z,75.06
2024-05-09T03:26:36.217Z,74.72
2024-05-09T03:29:23.430Z,74.31
2024-05-09T03:32:21.945Z,74.35
2024-05-09T03:35:09.289Z,74.99
2024-05-09T03:37:56.045Z,75.29
2024-05-09T03:40:50.106Z,74.89
2024-05-09T03:43:38.046Z,74.61
2024-05-09T03:46:25.064Z,74.50
2024-05-09T03:49:12.695Z,74.83
2024-05-09T03:52:04.848Z,74.88
2024-05-09T03:54:52.355Z,75.11
2024-05-09T03:57:42.440Z,74.34
2024-05-09T04:00:36.941Z,74.12
2024-05-09T04:03:26.089Z,73.53
2024-05-09T04:06:20.267Z,73.65
2024-05-09T04:09:07.289Z,73.31
2024-05-09T04:11:54.699Z,72.67
2024-05-09T04:14:42.718Z,72.18
2024-05-09T04:17:30.262Z,72.83
2024-05-09T04:20:28.770Z,72.66
2024-05-09T04:23:23.189Z,69.43
2024-05-09T04:26:10.421Z,68.53
2024-05-09T04:28:58.322Z,68.53
2024-05-09T04:31:45.057Z,67.46
2024-05-09T04:34:34.036Z,68.91
2024-05-09T04:37:25.206Z,67.54
2024-05-09T04:40:23.982Z,68.74
2024-05-09T04:43:19.398Z,70.87
2024-05-09T04:46:06.848Z,70.01
2024-05-09T04:48:54.065Z,64.49
2024-05-09T04:51:41.577Z,65.08
2024-05-09T04:54:34.320Z,64.21
2024-05-09T04:57:24.108Z,62.38
2024-05-09T05:00:14.821Z,61.38
2024-05-09T05:03:12.607Z,61.94
2024-05-09T05:06:02.176Z,61.58
2024-05-09T05:08:49.272Z,61.23
2024-05-09T05:11:36.610Z,61.44
2024-05-09T05:14:24.047Z,61.24
2024-05-09T05:17:11.169Z,60.56
2024-05-09T05:20:01.768Z,59.36
2024-05-09T05:22:48.267Z,58.78
2024-05-09T05:25:35.563Z,57.21
2024-05-09T05:28:23.000Z,57.49
2024-05-09T05:31:10.029Z,56.11
2024-05-09T05:33:57.146Z,54.86
2024-05-09T05:36:44.129Z,55.20
2024-05-09T05:39:31.141Z,54.40
2024-05-09T05:42:17.877Z,52.65
2024-05-09T05:45:08.284Z,50.35
2024-05-09T05:47:57.232Z,47.76
2024-05-09T05:50:45.029Z,49.04
2024-05-09T05:53:32.201Z,50.56
2024-05-09T05:56:19.432Z,51.14
2024-05-09T05:59:06.554Z,48.42
2024-05-09T06:01:53.349Z,48.09
2024-05-09T06:04:40.491Z,47.76
2024-05-09T06:07:27.968Z,47.49
2024-05-09T06:10:21.394Z,47.52
2024-05-09T06:13:13.435Z,46.14
2024-05-09T06:16:02.006Z,46.51
2024-05-09T06:18:48.618Z,46.48
2024-05-09T06:21:35.926Z,46.18
2024-05-09T06:24:23.061Z,46.55
2024-05-09T06:27:10.576Z,46.80
2024-05-09T06:29:57.910Z,47.16
2024-05-09T06:32:44.833Z,45.74
2024-05-09T06:35:32.711Z,45.75
2024-05-09T06:38:20.221Z,45.36
2024-05-09T06:41:07.114Z,44.76
2024-05-09T06:43:54.758Z,44.45
2024-05-09T06:46:42.169Z,43.51
2024-05-09T06:49:31.469Z,42.84
2024-05-09T06:52:19.482Z,40.90
2024-05-09T06:55:07.177Z,42.17
2024-05-09T06:57:54.623Z,42.41
2024-05-09T07:00:42.480Z,42.21
2024-05-09T07:03:30.134Z,41.82
2024-05-09T07:06:17.258Z,40.95
2024-05-09T07:09:04.821Z,42.37
2024-05-09T07:11:51.813Z,42.50
2024-05-09T07:14:38.837Z,41.50
2024-05-09T07:17:27.203Z,40.05
2024-05-09T07:20:23.177Z,41.03
2024-05-09T07:23:16.027Z,39.51
2024-05-09T07:26:03.761Z,37.91
2024-05-09T07:28:50.654Z,37.60
2024-05-09T07:31:37.632Z,37.13
2024-05-09T07:34:25.054Z,40.06
2024-05-09T07:37:13.437Z,37.46
2024-05-09T07:40:00.626Z,36.35
2024-05-09T07:42:47.979Z,36.19
2024-05-09T07:50:00.456Z,36.81
2024-05-09T07:54:31.999Z,33.77
2024-05-09T07:57:19.619Z,34.61
2024-05-09T08:00:08.249Z,35.81
2024-05-09T08:02:58.979Z,34.08
2024-05-09T08:05:46.138Z,33.41
2024-05-09T08:08:33.209Z,32.69
2024-05-09T08:11:20.380Z,33.74
2024-05-09T08:14:07.311Z,35.09
2024-05-09T08:16:54.671Z,35.17
2024-05-09T08:19:41.851Z,32.63
2024-05-09T08:22:31.936Z,32.96
2024-05-09T08:25:18.775Z,33.88
2024-05-09T08:28:06.489Z,33.31
2024-05-09T08:30:53.757Z,32.56
2024-05-09T08:33:45.253Z,32.74
2024-05-09T08:36:33.406Z,33.35
2024-05-09T08:39:20.168Z,33.79
2024-05-09T08:42:08.314Z,34.44
2024-05-09T08:44:55.438Z,33.15
2024-05-09T08:47:42.849Z,33.20
2024-05-09T08:50:36.570Z,33.15
2024-05-09T08:53:26.011Z,32.97
2024-05-09T08:56:13.114Z,32.47
2024-05-09T08:59:01.356Z,33.03
2024-05-09T09:01:48.299Z,31.73
2024-05-09T09:04:35.807Z,32.66
2024-05-09T09:07:22.708Z,32.50
2024-05-09T09:10:12.989Z,32.06
2024-05-09T09:13:03.923Z,31.26
2024-05-09T09:15:52.026Z,30.00
2024-05-09T09:18:39.400Z,31.29
2024-05-09T09:21:26.856Z,29.03
2024-05-09T09:24:14.135Z,30.80
2024-05-09T09:27:01.457Z,30.93
2024-05-09T09:29:48.773Z,30.43
2024-05-09T09:32:35.797Z,30.64
2024-05-09T09:35:23.252Z,29.82
2024-05-09T09:38:10.956Z,30.13
2024-05-09T09:40:57.896Z,29.72
2024-05-09T09:43:44.577Z,28.54
2024-05-09T09:46:31.407Z,28.53
2024-05-09T09:49:18.956Z,29.61
2024-05-09T09:52:07.628Z,29.90
2024-05-09T09:54:56.392Z,28.44
2024-05-09T09:57:44.316Z,28.27
2024-05-09T10:00:33.405Z,27.33
2024-05-09T10:03:21.698Z,27.63
2024-05-09T10:06:09.581Z,28.36
2024-05-09T10:08:56.652Z,29.86
2024-05-09T10:11:49.184Z,28.88
2024-05-09T10:14:49.113Z,30.47
2024-05-09T10:17:36.539Z,29.19
2024-05-09T10:20:27.962Z,26.92
2024-05-09T10:23:27.183Z,27.44
2024-05-09T10:26:14.653Z,27.27
2024-05-09T10:29:24.006Z,26.59
2024-05-09T10:32:11.127Z,26.88
2024-05-09T10:35:07.255Z,28.09
2024-05-09T10:37:54.254Z,28.16
2024-05-09T10:40:41.609Z,26.97
2024-05-09T10:43:28.771Z,27.68
2024-05-09T10:46:16.033Z,29.14
2024-05-09T10:49:06.193Z,27.62
2024-05-09T10:51:54.783Z,25.97
2024-05-09T10:54:41.889Z,27.38
2024-05-09T10:57:37.432Z,27.24
2024-05-09T11:00:35.580Z,26.65
2024-05-09T11:03:24.716Z,26.99
2024-05-09T11:06:12.462Z,26.71
2024-05-09T11:09:00.116Z,26.70
2024-05-09T11:11:47.562Z,27.35
2024-05-09T11:14:34.853Z,26.67
2024-05-09T11:17:22.305Z,26.25
2024-05-09T11:20:16.713Z,26.70
2024-05-09T11:23:06.733Z,25.29
2024-05-09T11:25:55.290Z,25.45
2024-05-09T11:28:45.780Z,27.06
2024-05-09T11:34:20.584Z,24.91
2024-05-09T11:37:08.729Z,27.82
2024-05-09T11:39:56.122Z,26.26
2024-05-09T11:42:43.383Z,26.46
2024-05-09T11:45:30.603Z,25.83
2024-05-09T11:48:18.451Z,25.66
2024-05-09T11:51:05.690Z,25.29
2024-05-09T11:53:53.132Z,25.63
2024-05-09T11:56:40.468Z,25.98
2024-05-09T11:59:27.854Z,24.87
2024-05-09T12:02:15.020Z,23.95
2024-05-09T12:05:02.608Z,24.59
2024-05-09T12:07:53.408Z,23.38
2024-05-09T12:10:41.378Z,21.90
2024-05-09T12:13:28.736Z,22.55
2024-05-09T12:16:15.998Z,21.97
2024-05-09T12:19:03.754Z,22.27
2024-05-09T12:21:51.173Z,21.94
2024-05-09T12:24:38.436Z,20.63
2024-05-09T12:27:25.711Z,20.92
2024-05-09T12:30:20.711Z,20.52
2024-05-09T12:33:15.429Z,20.18
2024-05-09T12:36:03.239Z,19.71
2024-05-09T12:38:50.769Z,18.02
2024-05-09T12:41:37.867Z,18.44
2024-05-09T12:44:24.794Z,18.18
2024-05-09T12:47:12.322Z,19.42
2024-05-09T12:49:59.860Z,19.04
2024-05-09T12:52:46.493Z,18.49
2024-05-09T12:55:40.964Z,18.58
2024-05-09T12:58:35.837Z,19.94
2024-05-09T13:01:23.142Z,19.67
2024-05-09T13:04:10.288Z,19.12
2024-05-09T13:06:57.316Z,18.45
2024-05-09T13:09:44.029Z,18.28
2024-05-09T13:12:31.882Z,17.82
2024-05-09T13:15:19.502Z,19.00
2024-05-09T13:18:07.317Z,19.43
2024-05-09T13:20:54.648Z,17.26
2024-05-09T13:23:42.047Z,16.29
2024-05-09T13:26:28.861Z,16.24
2024-05-09T13:29:16.308Z,15.54
2024-05-09T13:32:04.115Z,17.94
2024-05-09T13:34:51.592Z,18.16
2024-05-09T13:37:38.751Z,19.07
2024-05-09T13:40:32.728Z,18.99
2024-05-09T13:43:23.103Z,19.55
2024-05-09T13:46:09.983Z,19.89
2024-05-09T13:48:57.295Z,19.73
2024-05-09T13:51:44.663Z,19.09
2024-05-09T13:54:32.144Z,18.50
2024-05-09T13:57:19.364Z,19.58
2024-05-09T14:00:12.063Z,18.96
2024-05-09T14:03:02.571Z,19.98
2024-05-09T14:05:51.948Z,19.43
2024-05-09T14:08:39.487Z,18.61
2024-05-09T14:11:27.283Z,18.00
2024-05-09T14:14:14.538Z,20.83
2024-05-09T14:17:02.019Z,19.62
2024-05-09T14:19:49.288Z,19.92
2024-05-09T14:22:36.636Z,19.31
2024-05-09T14:25:26.055Z,19.84
2024-05-09T14:28:13.771Z,19.46
2024-05-09T14:31:01.644Z,19.07
2024-05-09T14:33:49.175Z,17.70
2024-05-09T14:36:36.646Z,17.14
2024-05-09T14:39:23.528Z,16.37
2024-05-09T14:42:10.828Z,17.72
2024-05-09T14:44:57.934Z,17.14
2024-05-09T14:47:44.830Z,17.34
2024-05-09T14:50:36.737Z,17.92
2024-05-09T14:53:27.897Z,21.78
2024-05-09T14:56:15.364Z,19.51
2024-05-09T14:59:03.394Z,18.83
2024-05-09T15:01:50.852Z,18.92
2024-05-09T15:04:38.434Z,20.26
2024-05-09T15:07:25.445Z,21.55
2024-05-09T15:10:20.337Z,21.40
2024-05-09T15:13:13.238Z,20.04
2024-05-09T15:16:01.902Z,21.54
2024-05-09T15:18:49.496Z,23.47
2024-05-09T15:21:37.140Z,22.36
2024-05-09T15:24:23.900Z,22.31
2024-05-09T15:27:11.796Z,22.87
2024-05-09T15:30:01.948Z,27.05
2024-05-09T15:32:49.222Z,26.85
2024-05-09T15:35:40.883Z,24.19
2024-05-09T15:38:27.901Z,24.24
2024-05-09T15:41:15.144Z,30.69
2024-05-09T15:44:02.140Z,27.91
2024-05-09T15:46:48.970Z,27.49
2024-05-09T15:49:35.990Z,26.28
2024-05-09T15:52:23.292Z,28.08
2024-05-09T15:55:10.188Z,27.71
2024-05-09T15:57:56.832Z,26.81
2024-05-09T16:00:46.291Z,25.64
2024-05-09T16:03:35.180Z,26.81
2024-05-09T16:06:23.070Z,26.35
2024-05-09T16:09:10.233Z,26.30
2024-05-09T16:11:57.038Z,25.78
2024-05-09T16:14:45.274Z,26.10
2024-05-09T16:17:32.717Z,28.86
2024-05-09T16:20:29.942Z,32.35
2024-05-09T16:23:26.479Z,32.96
2024-05-09T16:26:13.776Z,31.83
2024-05-09T16:29:01.251Z,32.94
2024-05-09T16:31:48.331Z,36.28
2024-05-09T16:34:35.989Z,34.91
2024-05-09T16:37:24.685Z,35.68
2024-05-09T16:40:21.996Z,32.51
2024-05-09T16:43:17.209Z,31.59
2024-05-09T16:46:08.591Z,30.78
2024-05-09T16:48:55.879Z,34.93
2024-05-09T16:51:43.457Z,35.75
2024-05-09T16:54:30.375Z,35.13
2024-05-09T16:57:17.602Z,36.54
2024-05-09T17:00:09.327Z,38.40
2024-05-09T17:02:59.362Z,40.04
2024-05-09T17:05:47.740Z,39.70
2024-05-09T17:08:36.877Z,40.32
2024-05-09T17:11:24.258Z,41.03
2024-05-09T17:14:11.710Z,40.64
2024-05-09T17:16:58.679Z,41.84
2024-05-09T17:19:47.206Z,41.66
2024-05-09T17:22:34.831Z,42.31
2024-05-09T17:25:22.481Z,42.60
2024-05-09T17:28:10.448Z,43.94
2024-05-09T17:30:58.514Z,45.04
2024-05-09T17:33:45.567Z,45.17
2024-05-09T17:36:33.141Z,45.50
2024-05-09T17:39:20.222Z,46.38
2024-05-09T17:42:07.111Z,47.46
2024-05-09T17:44:54.968Z,47.04
2024-05-09T17:47:42.440Z,46.78
2024-05-09T17:53:20.037Z,47.65
2024-05-09T17:56:07.999Z,48.27
2024-05-09T17:58:55.155Z,50.08
2024-05-09T18:01:42.698Z,50.18
2024-05-09T18:04:33.291Z,48.73
2024-05-09T18:07:20.993Z,46.88
2024-05-09T18:10:16.054Z,50.12
2024-05-09T18:13:10.801Z,50.65
2024-05-09T18:15:58.750Z,51.49
2024-05-09T18:18:46.402Z,52.50
2024-05-09T18:21:33.715Z,52.05
2024-05-09T18:24:22.203Z,51.36
2024-05-09T18:27:09.379Z,54.13
2024-05-09T18:29:56.591Z,51.19
2024-05-09T18:32:43.988Z,50.87
2024-05-09T18:35:31.064Z,51.64
2024-05-09T18:38:19.082Z,53.77
2024-05-09T18:41:06.155Z,53.47
2024-05-09T18:43:54.954Z,55.92
2024-05-09T18:46:41.664Z,54.50
2024-05-09T18:49:29.292Z,54.61
2024-05-09T18:52:16.312Z,53.76
2024-05-09T18:55:04.376Z,53.72
2024-05-09T18:57:51.512Z,54.98
2024-05-09T19:00:41.323Z,55.35
2024-05-09T19:03:30.894Z,55.57
2024-05-09T19:06:21.051Z,56.13
2024-05-09T19:09:09.982Z,55.61
2024-05-09T19:12:00.420Z,56.62
2024-05-09T19:14:47.773Z,56.65
2024-05-09T19:17:34.870Z,56.69
2024-05-09T19:20:28.617Z,58.62
2024-05-09T19:23:20.564Z,57.73
2024-05-09T19:26:08.331Z,57.25
2024-05-09T19:28:55.561Z,57.70
2024-05-09T19:31:42.263Z,57.65
2024-05-09T19:34:29.560Z,57.69
2024-05-09T19:37:16.713Z,57.42
2024-05-09T19:40:06.771Z,58.23
2024-05-09T19:42:55.610Z,59.40
2024-05-09T19:45:43.343Z,59.76
2024-05-09T19:48:30.735Z,58.87
2024-05-09T19:51:18.227Z,59.41
2024-05-09T19:54:04.936Z,59.42
2024-05-09T19:56:52.260Z,59.41
2024-05-09T19:59:38.770Z,59.43
2024-05-09T20:02:25.833Z,59.43
2024-05-09T20:05:12.577Z,59.80
2024-05-09T20:08:00.049Z,60.11
2024-05-09T20:10:47.101Z,60.26
2024-05-09T20:13:34.292Z,61.13
2024-05-09T20:16:21.543Z,60.55
2024-05-09T20:19:08.528Z,60.77
2024-05-09T20:21:55.584Z,60.63
2024-05-09T20:24:42.536Z,60.27
2024-05-09T20:27:30.135Z,60.28
2024-05-09T20:30:25.316Z,59.88
2024-05-09T20:33:18.993Z,60.27
2024-05-09T20:36:06.145Z,61.35
2024-05-09T20:38:53.560Z,60.94
2024-05-09T20:41:43.758Z,60.62
2024-05-09T20:44:34.254Z,60.81
2024-05-09T20:47:21.840Z,61.45
2024-05-09T20:50:20.164Z,61.31
2024-05-09T20:53:15.644Z,61.93
2024-05-09T20:56:02.896Z,61.75
2024-05-09T20:58:49.710Z,62.04
2024-05-09T21:01:36.767Z,62.27
2024-05-09T21:04:24.109Z,62.51
2024-05-09T21:07:12.047Z,63.50
2024-05-09T21:10:02.372Z,63.56
2024-05-09T21:12:49.955Z,63.72
2024-05-09T21:15:37.183Z,63.94
2024-05-09T21:18:24.527Z,63.52
2024-05-09T21:21:11.343Z,63.69
2024-05-09T21:23:58.167Z,64.13
2024-05-09T21:26:45.289Z,65.03
2024-05-09T21:29:32.398Z,64.95
2024-05-09T21:32:20.877Z,64.36
2024-05-09T21:35:07.972Z,63.91
2024-05-09T21:37:55.135Z,64.15
2024-05-09T21:40:42.385Z,64.77
2024-05-09T21:43:31.287Z,66.17
2024-05-09T21:46:18.293Z,66.26
2024-05-09T21:49:05.346Z,65.61
2024-05-09T21:51:52.549Z,65.86
2024-05-09T21:54:38.975Z,66.66
2024-05-09T21:57:25.818Z,67.73
2024-05-09T22:00:28.177Z,67.17
2024-05-09T22:03:22.044Z,66.70
2024-05-09T22:06:08.891Z,66.22
2024-05-09T22:08:56.227Z,66.91
2024-05-09T22:11:48.060Z,67.06
2024-05-09T22:14:36.801Z,67.61
2024-05-09T22:17:24.257Z,68.12
2024-05-09T22:20:18.083Z,68.12
2024-05-09T22:23:09.519Z,68.36
2024-05-09T22:25:56.855Z,68.04
2024-05-09T22:28:44.471Z,68.38
2024-05-09T22:31:31.943Z,67.98
2024-05-09T22:34:19.164Z,68.23
2024-05-09T22:37:06.460Z,68.61
2024-05-09T22:39:53.554Z,68.53
2024-05-09T22:42:41.112Z,69.09
2024-05-09T22:45:28.602Z,69.61
2024-05-09T22:48:15.748Z,69.79
2024-05-09T22:51:03.048Z,70.07
2024-05-09T22:53:49.861Z,69.94
2024-05-09T22:56:37.095Z,71.28
2024-05-09T22:59:23.887Z,71.49
2024-05-09T23:02:10.732Z,71.46
2024-05-09T23:04:58.124Z,71.03
2024-05-09T23:07:45.439Z,71.31
2024-05-09T23:10:36.656Z,70.94
2024-05-09T23:13:25.749Z,71.35
2024-05-09T23:16:13.532Z,71.83
2024-05-09T23:19:00.780Z,70.87
2024-05-09T23:21:47.826Z,70.19
2024-05-09T23:24:35.268Z,71.14
2024-05-09T23:27:22.034Z,71.98
2024-05-09T23:30:12.431Z,71.85
2024-05-09T23:33:02.439Z,72.71
2024-05-09T23:35:52.069Z,73.27
2024-05-09T23:38:40.318Z,73.02
2024-05-09T23:41:27.144Z,72.99
2024-05-09T23:44:14.459Z,73.32
2024-05-09T23:47:05.381Z,73.59
2024-05-09T23:49:56.115Z,73.44
2024-05-09T23:52:46.360Z,73.43
2024-05-09T23:55:36.527Z,72.86
2024-05-09T23:58:23.795Z,72.31
